Terminal Aerodrome Forecast
Issued by NWS

Home | Current Version | Previous Version | Graphics & Text | Print | Product List | Glossary On
Versions: 1 2 3 4 5 6 7 8 9 10 11 12 13 14 15 16 17
000
FTUS43 KICT 272322
TAFCNU
TAF
KCNU 272322Z 2800/2824 13006KT P6SM VCSH OVC090
     FM280400 10012KT P6SM VCTS BKN030 OVC060CB
      TEMPO 2804/2808 5SM TSRA
     FM280900 10013KT 6SM BR VCSH OVC020
     FM281200 11010KT 5SM BR OVC014
     FM281600 15008KT P6SM OVC020
     FM282100 13007KT P6SM BKN030=

USA.gov is the U.S. government's official web portal to all federal, state and local government web resources and services.